sensor_id;sensor_type;location;lat;lon;timestamp;temperature;humidity
9311;DHT22;4694;52.464;13.480;2022-09-16T00:01:34;12.90;99.90
9311;DHT22;4694;52.464;13.480;2022-09-16T00:04:02;12.80;99.90
9311;DHT22;4694;52.464;13.480;2022-09-16T00:06:30;12.80;99.90
9311;DHT22;4694;52.464;13.480;2022-09-16T00:08:57;12.80;99.90
9311;DHT22;4694;52.464;13.480;2022-09-16T00:11:26;12.80;99.90
9311;DHT22;4694;52.464;13.480;2022-09-16T00:13:52;12.80;99.90
9311;DHT22;4694;52.464;13.480;2022-09-16T00:16:21;12.80;99.90
9311;DHT22;4694;52.464;13.480;2022-09-16T00:18:48;12.70;99.90
9311;DHT22;4694;52.464;13.480;2022-09-16T00:21:19;12.70;99.90
9311;DHT22;4694;52.464;13.480;2022-09-16T00:23:46;12.70;99.90
9311;DHT22;4694;52.464;13.480;2022-09-16T00:26:12;12.70;99.90
9311;DHT22;4694;52.464;13.480;2022-09-16T00:28:39;12.70;99.90
9311;DHT22;4694;52.464;13.480;2022-09-16T00:31:06;12.60;99.90
9311;DHT22;4694;52.464;13.480;2022-09-16T00:33:32;12.60;99.90
9311;DHT22;4694;52.464;13.480;2022-09-16T00:36:07;12.60;99.90
9311;DHT22;4694;52.464;13.480;2022-09-16T00:38:35;12.50;99.90
9311;DHT22;4694;52.464;13.480;2022-09-16T00:41:02;12.50;99.90
9311;DHT22;4694;52.464;13.480;2022-09-16T00:43:46;12.40;99.90
9311;DHT22;4694;52.464;13.480;2022-09-16T00:46:13;12.40;99.90
9311;DHT22;4694;52.464;13.480;2022-09-16T00:48:40;12.50;99.90
9311;DHT22;4694;52.464;13.480;2022-09-16T00:51:09;12.40;99.90
9311;DHT22;4694;52.464;13.480;2022-09-16T00:53:41;12.40;99.90
9311;DHT22;4694;52.464;13.480;2022-09-16T00:56:12;12.30;99.90
9311;DHT22;4694;52.464;13.480;2022-09-16T00:58:43;12.40;99.90
9311;DHT22;4694;52.464;13.480;2022-09-16T01:01:11;12.20;99.90
9311;DHT22;4694;52.464;13.480;2022-09-16T01:03:43;12.40;99.90
9311;DHT22;4694;52.464;13.480;2022-09-16T01:06:11;12.40;99.90
9311;DHT22;4694;52.464;13.480;2022-09-16T01:08:41;12.30;99.90
9311;DHT22;4694;52.464;13.480;2022-09-16T01:11:08;12.30;99.90
9311;DHT22;4694;52.464;13.480;2022-09-16T01:13:35;12.30;99.90
9311;DHT22;4694;52.464;13.480;2022-09-16T01:16:06;12.20;99.90
9311;DHT22;4694;52.464;13.480;2022-09-16T01:18:39;12.20;99.90
9311;DHT22;4694;52.464;13.480;2022-09-16T01:21:37;12.10;99.90
9311;DHT22;4694;52.464;13.480;2022-09-16T01:24:31;12.10;99.90
9311;DHT22;4694;52.464;13.480;2022-09-16T01:27:13;12.00;99.90
9311;DHT22;4694;52.464;13.480;2022-09-16T01:30:03;12.10;99.90
9311;DHT22;4694;52.464;13.480;2022-09-16T01:32:39;12.00;99.90
9311;DHT22;4694;52.464;13.480;2022-09-16T01:35:13;11.90;99.90
9311;DHT22;4694;52.464;13.480;2022-09-16T01:37:46;11.80;99.90
9311;DHT22;4694;52.464;13.480;2022-09-16T01:40:25;11.90;99.90
9311;DHT22;4694;52.464;13.480;2022-09-16T01:42:59;12.00;99.90
9311;DHT22;4694;52.464;13.480;2022-09-16T01:45:34;11.90;99.90
9311;DHT22;4694;52.464;13.480;2022-09-16T01:48:07;11.80;99.90
9311;DHT22;4694;52.464;13.480;2022-09-16T01:50:40;12.00;99.90
9311;DHT22;4694;52.464;13.480;2022-09-16T01:53:13;11.90;99.90
9311;DHT22;4694;52.464;13.480;2022-09-16T01:55:46;11.90;99.90
9311;DHT22;4694;52.464;13.480;2022-09-16T01:58:17;11.90;99.90
9311;DHT22;4694;52.464;13.480;2022-09-16T02:00:47;11.90;99.90
9311;DHT22;4694;52.464;13.480;2022-09-16T02:05:50;11.80;99.90
9311;DHT22;4694;52.464;13.480;2022-09-16T02:08:23;11.90;99.90
9311;DHT22;4694;52.464;13.480;2022-09-16T02:10:55;12.20;99.90
9311;DHT22;4694;52.464;13.480;2022-09-16T02:13:28;11.80;99.90
9311;DHT22;4694;52.464;13.480;2022-09-16T02:15:59;11.80;99.90
9311;DHT22;4694;52.464;13.480;2022-09-16T02:18:31;11.80;99.90
9311;DHT22;4694;52.464;13.480;2022-09-16T02:21:02;11.80;99.90
9311;DHT22;4694;52.464;13.480;2022-09-16T02:23:33;11.70;99.90
9311;DHT22;4694;52.464;13.480;2022-09-16T02:26:00;11.70;99.90
9311;DHT22;4694;52.464;13.480;2022-09-16T02:28:33;11.70;99.90
9311;DHT22;4694;52.464;13.480;2022-09-16T02:31:04;11.80;99.90
9311;DHT22;4694;52.464;13.480;2022-09-16T02:33:35;11.70;99.90
9311;DHT22;4694;52.464;13.480;2022-09-16T02:36:04;11.70;99.90
9311;DHT22;4694;52.464;13.480;2022-09-16T02:38:35;11.70;99.90
9311;DHT22;4694;52.464;13.480;2022-09-16T02:41:04;11.60;99.90
9311;DHT22;4694;52.464;13.480;2022-09-16T02:43:31;11.70;99.90
9311;DHT22;4694;52.464;13.480;2022-09-16T02:46:05;11.80;99.90
9311;DHT22;4694;52.464;13.480;2022-09-16T02:48:46;11.70;99.90
9311;DHT22;4694;52.464;13.480;2022-09-16T02:51:25;11.70;99.90
9311;DHT22;4694;52.464;13.480;2022-09-16T02:53:58;11.70;99.90
9311;DHT22;4694;52.464;13.480;2022-09-16T02:56:30;11.60;99.90
9311;DHT22;4694;52.464;13.480;2022-09-16T02:58:57;11.70;99.90
9311;DHT22;4694;52.464;13.480;2022-09-16T03:01:24;11.70;99.90
9311;DHT22;4694;52.464;13.480;2022-09-16T03:03:54;11.70;99.90
9311;DHT22;4694;52.464;13.480;2022-09-16T03:06:22;11.60;99.90
9311;DHT22;4694;52.464;13.480;2022-09-16T03:08:50;11.60;99.90
9311;DHT22;4694;52.464;13.480;2022-09-16T03:11:34;11.70;99.90
9311;DHT22;4694;52.464;13.480;2022-09-16T03:17:07;11.70;99.90
9311;DHT22;4694;52.464;13.480;2022-09-16T03:19:48;11.70;99.90
9311;DHT22;4694;52.464;13.480;2022-09-16T03:22:19;11.70;99.90
9311;DHT22;4694;52.464;13.480;2022-09-16T03:24:55;11.70;99.90
9311;DHT22;4694;52.464;13.480;2022-09-16T03:27:28;11.70;99.90
9311;DHT22;4694;52.464;13.480;2022-09-16T03:30:01;11.70;99.90
9311;DHT22;4694;52.464;13.480;2022-09-16T03:32:30;11.70;99.90
9311;DHT22;4694;52.464;13.480;2022-09-16T03:35:02;11.70;99.90
9311;DHT22;4694;52.464;13.480;2022-09-16T03:37:31;11.60;99.90
9311;DHT22;4694;52.464;13.480;2022-09-16T03:40:04;11.60;99.90
9311;DHT22;4694;52.464;13.480;2022-09-16T03:42:33;11.60;99.90
9311;DHT22;4694;52.464;13.480;2022-09-16T03:45:00;11.60;99.90
9311;DHT22;4694;52.464;13.480;2022-09-16T03:49:54;11.50;99.90
9311;DHT22;4694;52.464;13.480;2022-09-16T03:52:22;11.50;99.90
9311;DHT22;4694;52.464;13.480;2022-09-16T03:54:48;11.50;99.90
9311;DHT22;4694;52.464;13.480;2022-09-16T03:57:15;11.50;99.90
9311;DHT22;4694;52.464;13.480;2022-09-16T03:59:41;11.50;99.90
9311;DHT22;4694;52.464;13.480;2022-09-16T04:02:08;11.50;99.90
9311;DHT22;4694;52.464;13.480;2022-09-16T04:04:35;11.50;99.90
9311;DHT22;4694;52.464;13.480;2022-09-16T04:07:01;11.60;99.90
9311;DHT22;4694;52.464;13.480;2022-09-16T04:09:29;11.50;99.90
9311;DHT22;4694;52.464;13.480;2022-09-16T04:11:55;11.60;99.90
9311;DHT22;4694;52.464;13.480;2022-09-16T04:14:22;11.50;99.90
9311;DHT22;4694;52.464;13.480;2022-09-16T04:16:49;11.50;99.90
9311;DHT22;4694;52.464;13.480;2022-09-16T04:19:15;11.50;99.90
9311;DHT22;4694;52.464;13.480;2022-09-16T04:21:42;11.50;99.90
9311;DHT22;4694;52.464;13.480;2022-09-16T04:24:09;11.50;99.90
9311;DHT22;4694;52.464;13.480;2022-09-16T04:26:37;11.50;99.90
9311;DHT22;4694;52.464;13.480;2022-09-16T04:29:03;11.50;99.90
9311;DHT22;4694;52.464;13.480;2022-09-16T04:31:30;11.40;99.90
9311;DHT22;4694;52.464;13.480;2022-09-16T04:33:56;11.40;99.90
9311;DHT22;4694;52.464;13.480;2022-09-16T04:36:23;11.30;99.90
9311;DHT22;4694;52.464;13.480;2022-09-16T04:38:49;11.40;99.90
9311;DHT22;4694;52.464;13.480;2022-09-16T04:41:18;11.40;99.90
9311;DHT22;4694;52.464;13.480;2022-09-16T04:43:50;11.40;99.90
9311;DHT22;4694;52.464;13.480;2022-09-16T04:46:17;11.40;99.90
9311;DHT22;4694;52.464;13.480;2022-09-16T04:48:46;11.50;99.90
9311;DHT22;4694;52.464;13.480;2022-09-16T04:51:13;11.40;99.90
9311;DHT22;4694;52.464;13.480;2022-09-16T04:53:41;11.40;99.90
9311;DHT22;4694;52.464;13.480;2022-09-16T04:56:10;11.50;99.90
9311;DHT22;4694;52.464;13.480;2022-09-16T04:58:40;11.40;99.90
9311;DHT22;4694;52.464;13.480;2022-09-16T05:01:10;11.30;99.90
9311;DHT22;4694;52.464;13.480;2022-09-16T05:03:38;11.30;99.90
9311;DHT22;4694;52.464;13.480;2022-09-16T05:06:10;11.30;99.90
9311;DHT22;4694;52.464;13.480;2022-09-16T05:08:37;11.30;99.90
9311;DHT22;4694;52.464;13.480;2022-09-16T05:11:05;11.30;99.90
9311;DHT22;4694;52.464;13.480;2022-09-16T05:13:33;11.30;99.90
9311;DHT22;4694;52.464;13.480;2022-09-16T05:16:01;11.40;99.90
9311;DHT22;4694;52.464;13.480;2022-09-16T05:18:29;12.00;99.90
9311;DHT22;4694;52.464;13.480;2022-09-16T05:20:57;14.30;99.90
9311;DHT22;4694;52.464;13.480;2022-09-16T05:23:24;15.50;99.90
9311;DHT22;4694;52.464;13.480;2022-09-16T05:25:51;13.30;99.90
9311;DHT22;4694;52.464;13.480;2022-09-16T05:28:17;12.50;99.90
9311;DHT22;4694;52.464;13.480;2022-09-16T05:30:44;12.10;99.90
9311;DHT22;4694;52.464;13.480;2022-09-16T05:33:11;11.90;99.90
9311;DHT22;4694;52.464;13.480;2022-09-16T05:35:39;11.80;99.90
9311;DHT22;4694;52.464;13.480;2022-09-16T05:38:06;11.80;99.90
9311;DHT22;4694;52.464;13.480;2022-09-16T05:40:32;11.80;99.90
9311;DHT22;4694;52.464;13.480;2022-09-16T05:42:59;11.80;99.90
9311;DHT22;4694;52.464;13.480;2022-09-16T05:45:26;13.20;99.90
9311;DHT22;4694;52.464;13.480;2022-09-16T05:47:52;14.10;99.90
9311;DHT22;4694;52.464;13.480;2022-09-16T05:50:19;12.70;99.90
9311;DHT22;4694;52.464;13.480;2022-09-16T05:52:47;12.20;99.90
9311;DHT22;4694;52.464;13.480;2022-09-16T05:55:14;12.00;99.90
9311;DHT22;4694;52.464;13.480;2022-09-16T05:57:40;12.00;99.90
9311;DHT22;4694;52.464;13.480;2022-09-16T06:00:08;11.80;99.90
9311;DHT22;4694;52.464;13.480;2022-09-16T06:02:35;11.80;99.90
9311;DHT22;4694;52.464;13.480;2022-09-16T06:05:02;11.70;99.90
9311;DHT22;4694;52.464;13.480;2022-09-16T06:07:29;11.70;99.90
9311;DHT22;4694;52.464;13.480;2022-09-16T06:09:57;11.90;99.90
9311;DHT22;4694;52.464;13.480;2022-09-16T06:12:24;12.00;99.90
9311;DHT22;4694;52.464;13.480;2022-09-16T06:14:51;12.20;99.90
9311;DHT22;4694;52.464;13.480;2022-09-16T06:17:17;12.30;99.90
9311;DHT22;4694;52.464;13.480;2022-09-16T06:19:44;12.50;99.90
9311;DHT22;4694;52.464;13.480;2022-09-16T06:22:10;12.80;99.90
9311;DHT22;4694;52.464;13.480;2022-09-16T06:24:37;13.00;99.90
9311;DHT22;4694;52.464;13.480;2022-09-16T06:27:05;13.00;99.90
9311;DHT22;4694;52.464;13.480;2022-09-16T06:29:33;13.00;99.90
9311;DHT22;4694;52.464;13.480;2022-09-16T06:32:00;13.10;99.90
9311;DHT22;4694;52.464;13.480;2022-09-16T06:34:26;13.30;99.90
9311;DHT22;4694;52.464;13.480;2022-09-16T06:36:53;13.10;99.90
9311;DHT22;4694;52.464;13.480;2022-09-16T06:39:20;13.00;99.90
9311;DHT22;4694;52.464;13.480;2022-09-16T06:41:48;13.40;99.90
9311;DHT22;4694;52.464;13.480;2022-09-16T06:44:16;13.30;99.90
9311;DHT22;4694;52.464;13.480;2022-09-16T06:46:42;13.10;99.90
9311;DHT22;4694;52.464;13.480;2022-09-16T06:49:09;13.00;99.90
9311;DHT22;4694;52.464;13.480;2022-09-16T06:51:37;13.20;99.90
9311;DHT22;4694;52.464;13.480;2022-09-16T06:54:06;13.50;99.90
9311;DHT22;4694;52.464;13.480;2022-09-16T06:56:33;13.60;99.90
9311;DHT22;4694;52.464;13.480;2022-09-16T06:59:00;13.80;99.90
9311;DHT22;4694;52.464;13.480;2022-09-16T07:01:29;13.60;99.90
9311;DHT22;4694;52.464;13.480;2022-09-16T07:03:57;13.70;99.90
9311;DHT22;4694;52.464;13.480;2022-09-16T07:06:28;13.80;99.90
9311;DHT22;4694;52.464;13.480;2022-09-16T07:08:55;13.70;99.90
9311;DHT22;4694;52.464;13.480;2022-09-16T07:11:22;13.60;99.90
9311;DHT22;4694;52.464;13.480;2022-09-16T07:13:50;13.40;99.90
9311;DHT22;4694;52.464;13.480;2022-09-16T07:16:18;13.40;99.90
9311;DHT22;4694;52.464;13.480;2022-09-16T07:18:50;13.40;99.90
9311;DHT22;4694;52.464;13.480;2022-09-16T07:21:19;13.40;99.90
9311;DHT22;4694;52.464;13.480;2022-09-16T07:23:46;13.30;99.90
9311;DHT22;4694;52.464;13.480;2022-09-16T07:26:14;13.40;99.90
9311;DHT22;4694;52.464;13.480;2022-09-16T07:28:42;13.30;99.90
9311;DHT22;4694;52.464;13.480;2022-09-16T07:31:13;13.30;99.90
9311;DHT22;4694;52.464;13.480;2022-09-16T07:33:41;13.60;99.90
9311;DHT22;4694;52.464;13.480;2022-09-16T07:36:11;13.70;99.90
9311;DHT22;4694;52.464;13.480;2022-09-16T07:38:40;13.70;99.90
9311;DHT22;4694;52.464;13.480;2022-09-16T07:41:12;13.60;99.90
9311;DHT22;4694;52.464;13.480;2022-09-16T07:43:40;13.60;99.90
9311;DHT22;4694;52.464;13.480;2022-09-16T07:46:08;13.70;99.90
9311;DHT22;4694;52.464;13.480;2022-09-16T07:48:36;14.00;99.90
9311;DHT22;4694;52.464;13.480;2022-09-16T07:51:05;13.90;99.90
9311;DHT22;4694;52.464;13.480;2022-09-16T07:53:34;13.90;99.90
9311;DHT22;4694;52.464;13.480;2022-09-16T07:56:01;14.30;99.90
9311;DHT22;4694;52.464;13.480;2022-09-16T07:58:28;14.20;99.90
9311;DHT22;4694;52.464;13.480;2022-09-16T08:00:55;14.50;99.90
9311;DHT22;4694;52.464;13.480;2022-09-16T08:03:22;14.90;99.90
9311;DHT22;4694;52.464;13.480;2022-09-16T08:05:49;14.90;99.90
9311;DHT22;4694;52.464;13.480;2022-09-16T08:08:15;14.70;99.90
9311;DHT22;4694;52.464;13.480;2022-09-16T08:10:52;15.10;99.90
9311;DHT22;4694;52.464;13.480;2022-09-16T08:13:19;15.20;99.90
9311;DHT22;4694;52.464;13.480;2022-09-16T08:15:45;15.40;99.90
9311;DHT22;4694;52.464;13.480;2022-09-16T08:18:12;15.10;99.90
9311;DHT22;4694;52.464;13.480;2022-09-16T08:20:39;15.20;99.90
9311;DHT22;4694;52.464;13.480;2022-09-16T08:23:05;15.00;99.90
9311;DHT22;4694;52.464;13.480;2022-09-16T08:25:32;15.00;99.90
9311;DHT22;4694;52.464;13.480;2022-09-16T08:28:02;15.20;99.90
9311;DHT22;4694;52.464;13.480;2022-09-16T08:30:29;15.30;99.90
9311;DHT22;4694;52.464;13.480;2022-09-16T08:32:56;15.30;99.90
9311;DHT22;4694;52.464;13.480;2022-09-16T08:35:23;15.70;99.90
9311;DHT22;4694;52.464;13.480;2022-09-16T08:37:50;15.60;99.90
9311;DHT22;4694;52.464;13.480;2022-09-16T08:40:20;15.50;99.90
9311;DHT22;4694;52.464;13.480;2022-09-16T08:42:57;15.30;99.90
9311;DHT22;4694;52.464;13.480;2022-09-16T08:45:30;15.80;99.90
9311;DHT22;4694;52.464;13.480;2022-09-16T08:48:06;15.70;99.90
9311;DHT22;4694;52.464;13.480;2022-09-16T08:50:38;15.50;99.90
9311;DHT22;4694;52.464;13.480;2022-09-16T08:53:10;15.70;99.90
9311;DHT22;4694;52.464;13.480;2022-09-16T08:55:41;16.10;99.90
9311;DHT22;4694;52.464;13.480;2022-09-16T08:58:14;16.10;99.90
9311;DHT22;4694;52.464;13.480;2022-09-16T09:00:44;16.60;99.90
9311;DHT22;4694;52.464;13.480;2022-09-16T09:03:17;16.80;99.90
9311;DHT22;4694;52.464;13.480;2022-09-16T09:13:40;16.70;99.90
9311;DHT22;4694;52.464;13.480;2022-09-16T09:16:18;17.50;99.90
9311;DHT22;4694;52.464;13.480;2022-09-16T09:18:55;18.00;99.90
9311;DHT22;4694;52.464;13.480;2022-09-16T09:21:29;18.00;99.90
9311;DHT22;4694;52.464;13.480;2022-09-16T09:24:20;17.20;99.90
9311;DHT22;4694;52.464;13.480;2022-09-16T09:26:50;16.60;99.90
9311;DHT22;4694;52.464;13.480;2022-09-16T09:33:05;16.10;99.90
9311;DHT22;4694;52.464;13.480;2022-09-16T09:35:47;15.90;99.90
9311;DHT22;4694;52.464;13.480;2022-09-16T09:38:37;15.80;99.90
9311;DHT22;4694;52.464;13.480;2022-09-16T09:41:08;17.80;99.90
9311;DHT22;4694;52.464;13.480;2022-09-16T09:43:42;17.80;99.90
9311;DHT22;4694;52.464;13.480;2022-09-16T09:46:16;18.00;99.90
9311;DHT22;4694;52.464;13.480;2022-09-16T09:48:48;18.80;99.90
9311;DHT22;4694;52.464;13.480;2022-09-16T09:51:22;18.10;99.90
9311;DHT22;4694;52.464;13.480;2022-09-16T10:01:20;17.50;99.90
9311;DHT22;4694;52.464;13.480;2022-09-16T10:03:49;17.60;99.90
9311;DHT22;4694;52.464;13.480;2022-09-16T10:06:22;17.40;99.90
9311;DHT22;4694;52.464;13.480;2022-09-16T10:08:51;17.30;99.90
9311;DHT22;4694;52.464;13.480;2022-09-16T10:11:21;17.30;99.90
9311;DHT22;4694;52.464;13.480;2022-09-16T10:13:50;17.80;99.90
9311;DHT22;4694;52.464;13.480;2022-09-16T10:18:55;17.60;99.90
9311;DHT22;4694;52.464;13.480;2022-09-16T10:23:53;19.00;97.50
9311;DHT22;4694;52.464;13.480;2022-09-16T10:26:23;20.30;99.70
9311;DHT22;4694;52.464;13.480;2022-09-16T15:25:19;18.20;72.20
9311;DHT22;4694;52.464;13.480;2022-09-16T15:27:46;17.90;72.70
9311;DHT22;4694;52.464;13.480;2022-09-16T15:30:20;18.10;78.40
9311;DHT22;4694;52.464;13.480;2022-09-16T15:32:47;18.20;80.20
9311;DHT22;4694;52.464;13.480;2022-09-16T15:35:23;18.30;81.60
9311;DHT22;4694;52.464;13.480;2022-09-16T15:37:50;18.30;85.70
9311;DHT22;4694;52.464;13.480;2022-09-16T15:40:22;18.20;84.50
9311;DHT22;4694;52.464;13.480;2022-09-16T15:43:01;18.10;84.80
9311;DHT22;4694;52.464;13.480;2022-09-16T15:45:29;17.90;85.20
9311;DHT22;4694;52.464;13.480;2022-09-16T15:47:59;17.90;86.10
9311;DHT22;4694;52.464;13.480;2022-09-16T15:50:29;18.00;87.90
9311;DHT22;4694;52.464;13.480;2022-09-16T15:53:06;17.90;84.50
9311;DHT22;4694;52.464;13.480;2022-09-16T15:55:39;17.80;85.00
9311;DHT22;4694;52.464;13.480;2022-09-16T15:58:08;17.80;87.00
9311;DHT22;4694;52.464;13.480;2022-09-16T16:00:59;17.80;89.00
9311;DHT22;4694;52.464;13.480;2022-09-16T16:03:29;17.70;88.10
9311;DHT22;4694;52.464;13.480;2022-09-16T16:05:58;17.80;87.80
9311;DHT22;4694;52.464;13.480;2022-09-16T16:08:42;17.70;86.90
9311;DHT22;4694;52.464;13.480;2022-09-16T16:11:11;17.60;87.80
9311;DHT22;4694;52.464;13.480;2022-09-16T16:13:38;17.60;87.00
9311;DHT22;4694;52.464;13.480;2022-09-16T16:16:05;17.50;89.60
9311;DHT22;4694;52.464;13.480;2022-09-16T16:18:33;17.40;87.10
9311;DHT22;4694;52.464;13.480;2022-09-16T16:21:05;17.30;88.90
9311;DHT22;4694;52.464;13.480;2022-09-16T16:23:32;17.20;90.10
9311;DHT22;4694;52.464;13.480;2022-09-16T16:26:00;17.20;90.40
9311;DHT22;4694;52.464;13.480;2022-09-16T16:28:27;17.10;90.50
9311;DHT22;4694;52.464;13.480;2022-09-16T16:31:09;17.10;90.40
9311;DHT22;4694;52.464;13.480;2022-09-16T16:33:36;17.00;90.00
9311;DHT22;4694;52.464;13.480;2022-09-16T16:36:05;16.90;89.60
9311;DHT22;4694;52.464;13.480;2022-09-16T16:38:31;16.90;89.90
9311;DHT22;4694;52.464;13.480;2022-09-16T16:40:58;16.90;90.40
9311;DHT22;4694;52.464;13.480;2022-09-16T16:43:25;16.90;90.70
9311;DHT22;4694;52.464;13.480;2022-09-16T16:45:54;16.90;90.40
9311;DHT22;4694;52.464;13.480;2022-09-16T16:48:21;16.90;91.20
9311;DHT22;4694;52.464;13.480;2022-09-16T16:50:55;16.90;91.20
9311;DHT22;4694;52.464;13.480;2022-09-16T16:53:23;16.80;91.20
9311;DHT22;4694;52.464;13.480;2022-09-16T16:55:50;16.80;92.40
9311;DHT22;4694;52.464;13.480;2022-09-16T16:58:17;16.80;92.60
9311;DHT22;4694;52.464;13.480;2022-09-16T17:00:43;16.80;93.20
9311;DHT22;4694;52.464;13.480;2022-09-16T17:03:12;16.80;92.20
9311;DHT22;4694;52.464;13.480;2022-09-16T17:05:39;16.70;92.60
9311;DHT22;4694;52.464;13.480;2022-09-16T17:08:06;16.60;92.40
9311;DHT22;4694;52.464;13.480;2022-09-16T17:10:34;16.50;92.60
9311;DHT22;4694;52.464;13.480;2022-09-16T17:13:01;16.40;91.90
9311;DHT22;4694;52.464;13.480;2022-09-16T17:15:27;16.30;92.40
9311;DHT22;4694;52.464;13.480;2022-09-16T17:17:54;16.20;92.00
9311;DHT22;4694;52.464;13.480;2022-09-16T17:20:21;16.00;92.10
9311;DHT22;4694;52.464;13.480;2022-09-16T17:22:47;16.00;91.50
9311;DHT22;4694;52.464;13.480;2022-09-16T17:25:14;15.90;92.30
9311;DHT22;4694;52.464;13.480;2022-09-16T17:27:42;15.90;93.50
9311;DHT22;4694;52.464;13.480;2022-09-16T17:30:10;15.80;94.30
9311;DHT22;4694;52.464;13.480;2022-09-16T17:32:37;15.80;93.90
9311;DHT22;4694;52.464;13.480;2022-09-16T17:35:04;15.70;94.20
9311;DHT22;4694;52.464;13.480;2022-09-16T17:37:31;15.60;95.40
9311;DHT22;4694;52.464;13.480;2022-09-16T17:39:58;15.50;95.40
9311;DHT22;4694;52.464;13.480;2022-09-16T17:42:24;15.50;95.90
9311;DHT22;4694;52.464;13.480;2022-09-16T17:44:52;15.40;96.30
9311;DHT22;4694;52.464;13.480;2022-09-16T17:47:19;15.30;97.10
9311;DHT22;4694;52.464;13.480;2022-09-16T17:49:46;15.20;97.30
9311;DHT22;4694;52.464;13.480;2022-09-16T17:52:14;15.10;97.40
9311;DHT22;4694;52.464;13.480;2022-09-16T17:54:40;15.10;98.40
9311;DHT22;4694;52.464;13.480;2022-09-16T17:57:07;15.10;98.20
9311;DHT22;4694;52.464;13.480;2022-09-16T17:59:34;15.00;99.40
9311;DHT22;4694;52.464;13.480;2022-09-16T18:02:02;15.00;97.80
9311;DHT22;4694;52.464;13.480;2022-09-16T18:04:29;14.90;99.10
9311;DHT22;4694;52.464;13.480;2022-09-16T18:06:55;14.80;98.60
9311;DHT22;4694;52.464;13.480;2022-09-16T18:09:22;14.80;99.50
9311;DHT22;4694;52.464;13.480;2022-09-16T18:11:49;14.70;99.50
9311;DHT22;4694;52.464;13.480;2022-09-16T18:14:16;14.70;99.90
9311;DHT22;4694;52.464;13.480;2022-09-16T18:16:42;14.70;99.90
9311;DHT22;4694;52.464;13.480;2022-09-16T18:19:11;14.60;99.90
9311;DHT22;4694;52.464;13.480;2022-09-16T18:21:38;14.60;99.90
9311;DHT22;4694;52.464;13.480;2022-09-16T18:24:05;14.60;99.90
9311;DHT22;4694;52.464;13.480;2022-09-16T18:26:35;14.60;99.90
9311;DHT22;4694;52.464;13.480;2022-09-16T18:29:02;14.60;99.90
9311;DHT22;4694;52.464;13.480;2022-09-16T18:31:31;14.50;99.90
9311;DHT22;4694;52.464;13.480;2022-09-16T18:33:58;14.40;99.90
9311;DHT22;4694;52.464;13.480;2022-09-16T18:36:27;14.40;99.90
9311;DHT22;4694;52.464;13.480;2022-09-16T18:38:56;14.30;99.90
9311;DHT22;4694;52.464;13.480;2022-09-16T18:41:24;14.30;99.90
9311;DHT22;4694;52.464;13.480;2022-09-16T18:43:53;14.30;99.90
9311;DHT22;4694;52.464;13.480;2022-09-16T18:46:21;14.20;99.90
9311;DHT22;4694;52.464;13.480;2022-09-16T18:48:49;14.20;99.90
9311;DHT22;4694;52.464;13.480;2022-09-16T18:51:18;14.20;99.90
9311;DHT22;4694;52.464;13.480;2022-09-16T18:53:47;14.10;99.90
9311;DHT22;4694;52.464;13.480;2022-09-16T18:56:15;14.10;99.90
9311;DHT22;4694;52.464;13.480;2022-09-16T18:58:43;14.10;99.90
9311;DHT22;4694;52.464;13.480;2022-09-16T19:01:21;14.20;99.90
9311;DHT22;4694;52.464;13.480;2022-09-16T19:03:48;14.10;99.90
9311;DHT22;4694;52.464;13.480;2022-09-16T19:06:14;14.10;99.90
9311;DHT22;4694;52.464;13.480;2022-09-16T19:08:41;14.10;99.90
9311;DHT22;4694;52.464;13.480;2022-09-16T19:11:09;14.10;99.90
9311;DHT22;4694;52.464;13.480;2022-09-16T19:13:36;14.10;99.90
9311;DHT22;4694;52.464;13.480;2022-09-16T19:16:04;14.10;99.90
9311;DHT22;4694;52.464;13.480;2022-09-16T19:18:31;14.20;99.90
9311;DHT22;4694;52.464;13.480;2022-09-16T19:20:58;14.20;99.90
9311;DHT22;4694;52.464;13.480;2022-09-16T19:23:25;15.50;99.90
9311;DHT22;4694;52.464;13.480;2022-09-16T19:25:52;15.80;99.90
9311;DHT22;4694;52.464;13.480;2022-09-16T19:28:20;15.10;99.90
9311;DHT22;4694;52.464;13.480;2022-09-16T19:30:46;14.80;99.90
9311;DHT22;4694;52.464;13.480;2022-09-16T19:33:13;14.60;99.90
9311;DHT22;4694;52.464;13.480;2022-09-16T19:35:40;14.50;99.90
9311;DHT22;4694;52.464;13.480;2022-09-16T19:38:06;14.50;99.90
9311;DHT22;4694;52.464;13.480;2022-09-16T19:40:33;14.40;99.90
9311;DHT22;4694;52.464;13.480;2022-09-16T21:01:41;11.30;99.90
9311;DHT22;4694;52.464;13.480;2022-09-16T21:04:11;11.10;99.90
9311;DHT22;4694;52.464;13.480;2022-09-16T21:06:38;11.00;99.90
9311;DHT22;4694;52.464;13.480;2022-09-16T21:09:06;11.00;99.90
9311;DHT22;4694;52.464;13.480;2022-09-16T21:11:36;10.80;99.90
9311;DHT22;4694;52.464;13.480;2022-09-16T21:14:09;10.80;99.90
9311;DHT22;4694;52.464;13.480;2022-09-16T21:16:37;10.90;99.90
9311;DHT22;4694;52.464;13.480;2022-09-16T21:19:06;10.80;99.90
9311;DHT22;4694;52.464;13.480;2022-09-16T21:21:36;10.80;99.90
9311;DHT22;4694;52.464;13.480;2022-09-16T21:24:04;10.90;99.90
9311;DHT22;4694;52.464;13.480;2022-09-16T21:26:34;10.80;99.90
9311;DHT22;4694;52.464;13.480;2022-09-16T21:29:04;10.80;99.90
9311;DHT22;4694;52.464;13.480;2022-09-16T21:31:33;10.90;99.90
9311;DHT22;4694;52.464;13.480;2022-09-16T21:36:32;10.70;99.90
9311;DHT22;4694;52.464;13.480;2022-09-16T21:38:59;10.70;99.90
9311;DHT22;4694;52.464;13.480;2022-09-16T21:41:26;10.70;99.90
9311;DHT22;4694;52.464;13.480;2022-09-16T21:43:55;10.80;99.90
9311;DHT22;4694;52.464;13.480;2022-09-16T21:46:25;10.80;99.90
9311;DHT22;4694;52.464;13.480;2022-09-16T21:48:54;10.70;99.90
9311;DHT22;4694;52.464;13.480;2022-09-16T21:51:21;10.70;99.90
9311;DHT22;4694;52.464;13.480;2022-09-16T21:53:48;10.70;99.90
9311;DHT22;4694;52.464;13.480;2022-09-16T21:56:17;10.80;99.90
9311;DHT22;4694;52.464;13.480;2022-09-16T21:58:44;10.80;99.90
9311;DHT22;4694;52.464;13.480;2022-09-16T22:01:13;10.80;99.90
9311;DHT22;4694;52.464;13.480;2022-09-16T22:03:43;10.90;99.90
9311;DHT22;4694;52.464;13.480;2022-09-16T22:06:12;10.90;99.90
9311;DHT22;4694;52.464;13.480;2022-09-16T22:08:41;10.90;99.90
9311;DHT22;4694;52.464;13.480;2022-09-16T22:11:11;11.00;99.90
9311;DHT22;4694;52.464;13.480;2022-09-16T22:13:39;11.10;99.90
9311;DHT22;4694;52.464;13.480;2022-09-16T22:16:06;11.10;99.90
9311;DHT22;4694;52.464;13.480;2022-09-16T22:18:34;11.10;99.90
9311;DHT22;4694;52.464;13.480;2022-09-16T22:21:05;11.20;99.90
9311;DHT22;4694;52.464;13.480;2022-09-16T22:23:32;11.20;99.90
9311;DHT22;4694;52.464;13.480;2022-09-16T22:26:02;11.20;99.90
9311;DHT22;4694;52.464;13.480;2022-09-16T22:28:29;11.40;99.90
9311;DHT22;4694;52.464;13.480;2022-09-16T22:31:04;11.40;99.90
9311;DHT22;4694;52.464;13.480;2022-09-16T22:33:31;11.40;99.90
9311;DHT22;4694;52.464;13.480;2022-09-16T22:36:00;11.40;99.90
9311;DHT22;4694;52.464;13.480;2022-09-16T22:38:28;11.40;99.90
9311;DHT22;4694;52.464;13.480;2022-09-16T22:40:58;11.40;99.90
9311;DHT22;4694;52.464;13.480;2022-09-16T22:43:24;11.40;99.90
9311;DHT22;4694;52.464;13.480;2022-09-16T22:45:51;11.50;99.90
9311;DHT22;4694;52.464;13.480;2022-09-16T22:48:18;11.50;99.90